sensor_id;sensor_type;location;lat;lon;timestamp;P1;durP1;ratioP1;P2;durP2;ratioP2
21036;SDS011;10677;50.942;4.028;2022-08-19T00:00:19;54.67;;;38.72;;
21036;SDS011;10677;50.942;4.028;2022-08-19T00:02:45;56.20;;;39.20;;
21036;SDS011;10677;50.942;4.028;2022-08-19T00:05:13;56.63;;;40.90;;
21036;SDS011;10677;50.942;4.028;2022-08-19T00:07:41;54.17;;;39.00;;
21036;SDS011;10677;50.942;4.028;2022-08-19T00:10:08;57.85;;;40.80;;
21036;SDS011;10677;50.942;4.028;2022-08-19T00:12:35;54.63;;;40.55;;
21036;SDS011;10677;50.942;4.028;2022-08-19T00:15:06;57.30;;;41.08;;
21036;SDS011;10677;50.942;4.028;2022-08-19T00:17:36;62.40;;;42.08;;
21036;SDS011;10677;50.942;4.028;2022-08-19T00:20:03;56.70;;;40.95;;
21036;SDS011;10677;50.942;4.028;2022-08-19T00:22:30;62.15;;;42.63;;
21036;SDS011;10677;50.942;4.028;2022-08-19T00:24:56;65.32;;;43.97;;
21036;SDS011;10677;50.942;4.028;2022-08-19T00:27:22;57.88;;;42.25;;
21036;SDS011;10677;50.942;4.028;2022-08-19T00:29:47;59.63;;;42.13;;
21036;SDS011;10677;50.942;4.028;2022-08-19T00:32:13;59.35;;;41.75;;
21036;SDS011;10677;50.942;4.028;2022-08-19T00:34:38;66.68;;;44.22;;
21036;SDS011;10677;50.942;4.028;2022-08-19T00:37:04;60.33;;;42.13;;
21036;SDS011;10677;50.942;4.028;2022-08-19T00:39:30;65.60;;;42.92;;
21036;SDS011;10677;50.942;4.028;2022-08-19T00:41:56;61.15;;;42.00;;
21036;SDS011;10677;50.942;4.028;2022-08-19T00:44:23;59.80;;;40.92;;
21036;SDS011;10677;50.942;4.028;2022-08-19T00:46:52;59.42;;;41.05;;
21036;SDS011;10677;50.942;4.028;2022-08-19T00:52:04;59.85;;;41.15;;
21036;SDS011;10677;50.942;4.028;2022-08-19T00:54:37;60.08;;;40.60;;
21036;SDS011;10677;50.942;4.028;2022-08-19T00:57:05;58.05;;;40.53;;
21036;SDS011;10677;50.942;4.028;2022-08-19T00:59:34;62.08;;;40.53;;
21036;SDS011;10677;50.942;4.028;2022-08-19T01:02:03;53.88;;;39.70;;
21036;SDS011;10677;50.942;4.028;2022-08-19T01:04:29;53.08;;;38.65;;
21036;SDS011;10677;50.942;4.028;2022-08-19T01:06:55;49.03;;;36.55;;
21036;SDS011;10677;50.942;4.028;2022-08-19T01:09:22;50.47;;;36.40;;
21036;SDS011;10677;50.942;4.028;2022-08-19T01:11:48;50.80;;;35.60;;
21036;SDS011;10677;50.942;4.028;2022-08-19T01:14:14;50.17;;;34.60;;
21036;SDS011;10677;50.942;4.028;2022-08-19T01:16:42;45.78;;;33.72;;
21036;SDS011;10677;50.942;4.028;2022-08-19T01:19:12;46.05;;;33.75;;
21036;SDS011;10677;50.942;4.028;2022-08-19T01:21:52;47.28;;;32.83;;
21036;SDS011;10677;50.942;4.028;2022-08-19T01:24:26;44.75;;;31.58;;
21036;SDS011;10677;50.942;4.028;2022-08-19T01:26:51;45.15;;;32.08;;
21036;SDS011;10677;50.942;4.028;2022-08-19T01:29:17;43.20;;;31.77;;
21036;SDS011;10677;50.942;4.028;2022-08-19T01:31:43;43.33;;;31.42;;
21036;SDS011;10677;50.942;4.028;2022-08-19T01:34:09;42.38;;;30.83;;
21036;SDS011;10677;50.942;4.028;2022-08-19T01:36:41;40.75;;;29.42;;
21036;SDS011;10677;50.942;4.028;2022-08-19T01:39:11;37.63;;;27.92;;
21036;SDS011;10677;50.942;4.028;2022-08-19T01:41:39;40.45;;;27.05;;
21036;SDS011;10677;50.942;4.028;2022-08-19T01:44:06;35.08;;;25.10;;
21036;SDS011;10677;50.942;4.028;2022-08-19T01:46:33;38.65;;;24.75;;
21036;SDS011;10677;50.942;4.028;2022-08-19T01:49:00;36.75;;;24.33;;
21036;SDS011;10677;50.942;4.028;2022-08-19T01:51:26;34.97;;;25.52;;
21036;SDS011;10677;50.942;4.028;2022-08-19T01:53:52;39.38;;;24.70;;
21036;SDS011;10677;50.942;4.028;2022-08-19T01:56:18;34.25;;;23.90;;
21036;SDS011;10677;50.942;4.028;2022-08-19T01:58:45;37.03;;;25.85;;
21036;SDS011;10677;50.942;4.028;2022-08-19T02:01:16;37.05;;;25.63;;
21036;SDS011;10677;50.942;4.028;2022-08-19T02:03:42;39.92;;;26.05;;
21036;SDS011;10677;50.942;4.028;2022-08-19T02:06:07;34.85;;;25.35;;
21036;SDS011;10677;50.942;4.028;2022-08-19T02:08:34;37.28;;;25.55;;
21036;SDS011;10677;50.942;4.028;2022-08-19T02:11:01;36.42;;;25.52;;
21036;SDS011;10677;50.942;4.028;2022-08-19T02:13:27;36.35;;;24.90;;
21036;SDS011;10677;50.942;4.028;2022-08-19T02:15:53;34.50;;;23.95;;
21036;SDS011;10677;50.942;4.028;2022-08-19T02:18:18;33.83;;;25.08;;
21036;SDS011;10677;50.942;4.028;2022-08-19T02:20:44;33.53;;;24.15;;
21036;SDS011;10677;50.942;4.028;2022-08-19T02:23:12;36.78;;;24.63;;
21036;SDS011;10677;50.942;4.028;2022-08-19T02:25:39;32.38;;;23.92;;
21036;SDS011;10677;50.942;4.028;2022-08-19T02:28:05;35.80;;;23.25;;
21036;SDS011;10677;50.942;4.028;2022-08-19T02:30:31;32.53;;;22.35;;
21036;SDS011;10677;50.942;4.028;2022-08-19T02:32:57;30.98;;;22.65;;
21036;SDS011;10677;50.942;4.028;2022-08-19T02:35:23;31.02;;;22.42;;
21036;SDS011;10677;50.942;4.028;2022-08-19T02:37:49;33.22;;;21.75;;
21036;SDS011;10677;50.942;4.028;2022-08-19T02:40:33;32.90;;;22.38;;
21036;SDS011;10677;50.942;4.028;2022-08-19T02:43:03;35.08;;;22.20;;
21036;SDS011;10677;50.942;4.028;2022-08-19T02:45:36;35.60;;;22.58;;
21036;SDS011;10677;50.942;4.028;2022-08-19T02:48:02;30.08;;;21.42;;
21036;SDS011;10677;50.942;4.028;2022-08-19T02:50:29;31.90;;;20.63;;
21036;SDS011;10677;50.942;4.028;2022-08-19T02:52:56;33.25;;;21.42;;
21036;SDS011;10677;50.942;4.028;2022-08-19T02:55:22;33.72;;;21.60;;
21036;SDS011;10677;50.942;4.028;2022-08-19T02:57:48;29.58;;;20.02;;
21036;SDS011;10677;50.942;4.028;2022-08-19T03:00:13;33.80;;;21.20;;
21036;SDS011;10677;50.942;4.028;2022-08-19T03:02:39;33.50;;;20.60;;
21036;SDS011;10677;50.942;4.028;2022-08-19T03:05:06;36.42;;;20.50;;
21036;SDS011;10677;50.942;4.028;2022-08-19T03:07:34;31.02;;;20.35;;
21036;SDS011;10677;50.942;4.028;2022-08-19T03:10:01;32.88;;;19.92;;
21036;SDS011;10677;50.942;4.028;2022-08-19T03:12:27;33.20;;;20.65;;
21036;SDS011;10677;50.942;4.028;2022-08-19T03:14:53;31.30;;;20.42;;
21036;SDS011;10677;50.942;4.028;2022-08-19T03:17:19;31.20;;;19.38;;
21036;SDS011;10677;50.942;4.028;2022-08-19T03:19:44;29.88;;;19.80;;
21036;SDS011;10677;50.942;4.028;2022-08-19T03:22:10;31.27;;;19.38;;
21036;SDS011;10677;50.942;4.028;2022-08-19T03:24:36;32.22;;;19.27;;
21036;SDS011;10677;50.942;4.028;2022-08-19T03:27:02;28.70;;;18.50;;
21036;SDS011;10677;50.942;4.028;2022-08-19T03:29:29;31.27;;;19.00;;
21036;SDS011;10677;50.942;4.028;2022-08-19T03:31:57;25.17;;;17.45;;
21036;SDS011;10677;50.942;4.028;2022-08-19T03:34:26;26.85;;;16.83;;
21036;SDS011;10677;50.942;4.028;2022-08-19T03:36:54;28.02;;;17.02;;
21036;SDS011;10677;50.942;4.028;2022-08-19T03:39:21;27.23;;;17.10;;
21036;SDS011;10677;50.942;4.028;2022-08-19T03:41:48;25.83;;;16.88;;
21036;SDS011;10677;50.942;4.028;2022-08-19T03:44:16;25.52;;;16.80;;
21036;SDS011;10677;50.942;4.028;2022-08-19T03:46:52;26.45;;;17.13;;
21036;SDS011;10677;50.942;4.028;2022-08-19T03:49:20;28.02;;;16.67;;
21036;SDS011;10677;50.942;4.028;2022-08-19T03:51:49;27.38;;;16.33;;
21036;SDS011;10677;50.942;4.028;2022-08-19T03:54:16;26.88;;;15.73;;
21036;SDS011;10677;50.942;4.028;2022-08-19T03:56:48;25.10;;;16.92;;
21036;SDS011;10677;50.942;4.028;2022-08-19T03:59:16;29.90;;;17.33;;
21036;SDS011;10677;50.942;4.028;2022-08-19T04:01:51;25.35;;;16.17;;
21036;SDS011;10677;50.942;4.028;2022-08-19T04:04:18;28.48;;;17.65;;
21036;SDS011;10677;50.942;4.028;2022-08-19T04:06:44;28.48;;;16.95;;
21036;SDS011;10677;50.942;4.028;2022-08-19T04:09:12;27.45;;;17.45;;
21036;SDS011;10677;50.942;4.028;2022-08-19T04:11:39;34.95;;;18.40;;
21036;SDS011;10677;50.942;4.028;2022-08-19T04:14:07;31.15;;;17.77;;
21036;SDS011;10677;50.942;4.028;2022-08-19T04:16:33;27.63;;;17.30;;
21036;SDS011;10677;50.942;4.028;2022-08-19T04:19:00;26.30;;;17.40;;
21036;SDS011;10677;50.942;4.028;2022-08-19T04:21:27;30.10;;;17.90;;
21036;SDS011;10677;50.942;4.028;2022-08-19T04:23:54;29.25;;;17.25;;
21036;SDS011;10677;50.942;4.028;2022-08-19T04:26:21;33.95;;;19.02;;
21036;SDS011;10677;50.942;4.028;2022-08-19T04:28:52;29.85;;;18.38;;
21036;SDS011;10677;50.942;4.028;2022-08-19T04:31:20;29.23;;;18.70;;
21036;SDS011;10677;50.942;4.028;2022-08-19T04:33:51;29.65;;;17.52;;
21036;SDS011;10677;50.942;4.028;2022-08-19T04:36:29;30.63;;;18.80;;
21036;SDS011;10677;50.942;4.028;2022-08-19T04:38:57;34.92;;;18.35;;
21036;SDS011;10677;50.942;4.028;2022-08-19T04:41:26;31.58;;;18.83;;
21036;SDS011;10677;50.942;4.028;2022-08-19T04:44:10;33.53;;;18.85;;
21036;SDS011;10677;50.942;4.028;2022-08-19T04:46:37;36.47;;;20.13;;
21036;SDS011;10677;50.942;4.028;2022-08-19T04:49:04;32.83;;;18.75;;
21036;SDS011;10677;50.942;4.028;2022-08-19T04:51:31;30.77;;;19.70;;
21036;SDS011;10677;50.942;4.028;2022-08-19T04:53:57;35.40;;;20.63;;
21036;SDS011;10677;50.942;4.028;2022-08-19T04:56:24;29.77;;;20.73;;
21036;SDS011;10677;50.942;4.028;2022-08-19T04:58:51;32.03;;;19.70;;
21036;SDS011;10677;50.942;4.028;2022-08-19T05:01:20;30.38;;;18.98;;
21036;SDS011;10677;50.942;4.028;2022-08-19T05:03:50;31.77;;;19.15;;
21036;SDS011;10677;50.942;4.028;2022-08-19T05:06:18;33.72;;;21.13;;
21036;SDS011;10677;50.942;4.028;2022-08-19T05:08:45;35.40;;;19.95;;
21036;SDS011;10677;50.942;4.028;2022-08-19T05:11:15;35.20;;;20.75;;
21036;SDS011;10677;50.942;4.028;2022-08-19T05:13:41;29.08;;;19.58;;
21036;SDS011;10677;50.942;4.028;2022-08-19T05:16:09;34.33;;;19.83;;
21036;SDS011;10677;50.942;4.028;2022-08-19T05:18:36;28.90;;;19.17;;
21036;SDS011;10677;50.942;4.028;2022-08-19T05:21:20;33.80;;;19.85;;
21036;SDS011;10677;50.942;4.028;2022-08-19T05:24:05;30.77;;;19.42;;
21036;SDS011;10677;50.942;4.028;2022-08-19T05:26:35;30.42;;;18.80;;
21036;SDS011;10677;50.942;4.028;2022-08-19T05:29:02;32.03;;;18.10;;
21036;SDS011;10677;50.942;4.028;2022-08-19T05:31:28;33.70;;;18.50;;
21036;SDS011;10677;50.942;4.028;2022-08-19T05:33:54;30.13;;;17.33;;
21036;SDS011;10677;50.942;4.028;2022-08-19T05:36:20;28.85;;;17.52;;
21036;SDS011;10677;50.942;4.028;2022-08-19T05:38:46;27.08;;;16.73;;
21036;SDS011;10677;50.942;4.028;2022-08-19T05:41:13;27.92;;;17.45;;
21036;SDS011;10677;50.942;4.028;2022-08-19T05:43:40;23.33;;;15.07;;
21036;SDS011;10677;50.942;4.028;2022-08-19T05:46:06;30.02;;;16.60;;
21036;SDS011;10677;50.942;4.028;2022-08-19T05:48:33;25.05;;;16.05;;
21036;SDS011;10677;50.942;4.028;2022-08-19T05:51:03;26.27;;;15.63;;
21036;SDS011;10677;50.942;4.028;2022-08-19T05:53:33;23.60;;;14.63;;
21036;SDS011;10677;50.942;4.028;2022-08-19T05:56:09;24.98;;;15.05;;
21036;SDS011;10677;50.942;4.028;2022-08-19T05:58:37;25.25;;;13.95;;
21036;SDS011;10677;50.942;4.028;2022-08-19T06:01:04;24.17;;;12.85;;
21036;SDS011;10677;50.942;4.028;2022-08-19T06:03:35;21.70;;;11.73;;
21036;SDS011;10677;50.942;4.028;2022-08-19T06:06:02;19.67;;;11.98;;
21036;SDS011;10677;50.942;4.028;2022-08-19T06:08:28;21.88;;;12.00;;
21036;SDS011;10677;50.942;4.028;2022-08-19T06:10:55;22.63;;;12.13;;
21036;SDS011;10677;50.942;4.028;2022-08-19T06:13:21;21.63;;;12.15;;
21036;SDS011;10677;50.942;4.028;2022-08-19T06:15:47;23.08;;;12.32;;
21036;SDS011;10677;50.942;4.028;2022-08-19T06:18:13;17.52;;;11.15;;
21036;SDS011;10677;50.942;4.028;2022-08-19T06:20:40;17.70;;;11.15;;
21036;SDS011;10677;50.942;4.028;2022-08-19T06:23:06;19.88;;;11.98;;
21036;SDS011;10677;50.942;4.028;2022-08-19T06:25:33;17.80;;;11.48;;
21036;SDS011;10677;50.942;4.028;2022-08-19T06:28:00;19.13;;;10.77;;
21036;SDS011;10677;50.942;4.028;2022-08-19T06:30:27;19.02;;;10.95;;
21036;SDS011;10677;50.942;4.028;2022-08-19T06:32:53;19.45;;;10.25;;
21036;SDS011;10677;50.942;4.028;2022-08-19T06:35:18;16.35;;;9.82;;
21036;SDS011;10677;50.942;4.028;2022-08-19T06:37:44;14.68;;;10.00;;
21036;SDS011;10677;50.942;4.028;2022-08-19T06:40:11;16.27;;;10.45;;
21036;SDS011;10677;50.942;4.028;2022-08-19T06:42:37;17.50;;;9.77;;
21036;SDS011;10677;50.942;4.028;2022-08-19T06:45:04;19.75;;;10.00;;
21036;SDS011;10677;50.942;4.028;2022-08-19T06:47:31;18.25;;;10.15;;
21036;SDS011;10677;50.942;4.028;2022-08-19T06:49:59;14.18;;;9.80;;
21036;SDS011;10677;50.942;4.028;2022-08-19T06:52:28;14.05;;;9.55;;
21036;SDS011;10677;50.942;4.028;2022-08-19T06:54:55;17.67;;;9.93;;
21036;SDS011;10677;50.942;4.028;2022-08-19T06:57:21;16.92;;;10.25;;
21036;SDS011;10677;50.942;4.028;2022-08-19T06:59:47;15.05;;;9.60;;
21036;SDS011;10677;50.942;4.028;2022-08-19T07:02:12;16.75;;;9.85;;
21036;SDS011;10677;50.942;4.028;2022-08-19T07:04:38;16.55;;;9.25;;
21036;SDS011;10677;50.942;4.028;2022-08-19T07:07:05;15.50;;;9.18;;
21036;SDS011;10677;50.942;4.028;2022-08-19T07:09:39;15.32;;;8.20;;
21036;SDS011;10677;50.942;4.028;2022-08-19T07:12:06;15.57;;;7.95;;
21036;SDS011;10677;50.942;4.028;2022-08-19T07:14:34;14.95;;;7.95;;
21036;SDS011;10677;50.942;4.028;2022-08-19T07:17:02;15.57;;;8.00;;
21036;SDS011;10677;50.942;4.028;2022-08-19T07:19:30;14.88;;;7.47;;
21036;SDS011;10677;50.942;4.028;2022-08-19T07:21:56;16.23;;;8.60;;
21036;SDS011;10677;50.942;4.028;2022-08-19T07:24:24;14.75;;;7.50;;
21036;SDS011;10677;50.942;4.028;2022-08-19T07:26:53;13.27;;;7.82;;
21036;SDS011;10677;50.942;4.028;2022-08-19T07:29:20;11.88;;;8.00;;
21036;SDS011;10677;50.942;4.028;2022-08-19T07:31:48;14.75;;;7.68;;
21036;SDS011;10677;50.942;4.028;2022-08-19T07:34:14;13.02;;;7.43;;
21036;SDS011;10677;50.942;4.028;2022-08-19T07:36:41;13.32;;;6.82;;
21036;SDS011;10677;50.942;4.028;2022-08-19T07:39:08;14.95;;;7.70;;
21036;SDS011;10677;50.942;4.028;2022-08-19T07:41:37;13.10;;;7.55;;
21036;SDS011;10677;50.942;4.028;2022-08-19T07:44:04;14.57;;;7.45;;
21036;SDS011;10677;50.942;4.028;2022-08-19T07:46:32;12.48;;;7.32;;
21036;SDS011;10677;50.942;4.028;2022-08-19T07:49:00;12.32;;;6.82;;
21036;SDS011;10677;50.942;4.028;2022-08-19T07:51:27;11.25;;;6.68;;
21036;SDS011;10677;50.942;4.028;2022-08-19T07:53:53;12.50;;;7.45;;
21036;SDS011;10677;50.942;4.028;2022-08-19T07:56:19;15.43;;;7.88;;
21036;SDS011;10677;50.942;4.028;2022-08-19T07:58:46;12.80;;;7.40;;
21036;SDS011;10677;50.942;4.028;2022-08-19T08:01:15;13.43;;;7.80;;
21036;SDS011;10677;50.942;4.028;2022-08-19T08:03:46;13.30;;;7.50;;
21036;SDS011;10677;50.942;4.028;2022-08-19T08:06:34;13.02;;;6.90;;
21036;SDS011;10677;50.942;4.028;2022-08-19T08:09:24;12.30;;;7.53;;
21036;SDS011;10677;50.942;4.028;2022-08-19T08:11:56;12.25;;;7.68;;
21036;SDS011;10677;50.942;4.028;2022-08-19T08:14:26;15.30;;;7.57;;
21036;SDS011;10677;50.942;4.028;2022-08-19T08:16:55;14.02;;;8.57;;
21036;SDS011;10677;50.942;4.028;2022-08-19T08:19:22;12.95;;;7.40;;
21036;SDS011;10677;50.942;4.028;2022-08-19T08:21:49;14.55;;;7.85;;
21036;SDS011;10677;50.942;4.028;2022-08-19T08:24:15;11.20;;;7.07;;
21036;SDS011;10677;50.942;4.028;2022-08-19T08:26:42;12.70;;;7.78;;
21036;SDS011;10677;50.942;4.028;2022-08-19T08:29:12;11.73;;;7.38;;
21036;SDS011;10677;50.942;4.028;2022-08-19T08:31:39;15.35;;;8.18;;
21036;SDS011;10677;50.942;4.028;2022-08-19T08:34:05;11.63;;;7.07;;
21036;SDS011;10677;50.942;4.028;2022-08-19T08:36:31;11.85;;;7.07;;
21036;SDS011;10677;50.942;4.028;2022-08-19T08:38:58;11.95;;;7.57;;
21036;SDS011;10677;50.942;4.028;2022-08-19T08:44:32;11.98;;;7.38;;
21036;SDS011;10677;50.942;4.028;2022-08-19T08:47:13;12.23;;;7.18;;
21036;SDS011;10677;50.942;4.028;2022-08-19T08:49:54;14.30;;;7.22;;
21036;SDS011;10677;50.942;4.028;2022-08-19T08:52:26;12.10;;;6.18;;
21036;SDS011;10677;50.942;4.028;2022-08-19T08:54:55;11.70;;;6.53;;
21036;SDS011;10677;50.942;4.028;2022-08-19T08:57:29;15.85;;;8.35;;
21036;SDS011;10677;50.942;4.028;2022-08-19T09:00:10;11.82;;;6.90;;
21036;SDS011;10677;50.942;4.028;2022-08-19T09:02:41;11.50;;;6.22;;
21036;SDS011;10677;50.942;4.028;2022-08-19T09:05:08;18.02;;;7.28;;
21036;SDS011;10677;50.942;4.028;2022-08-19T09:10:22;12.90;;;7.20;;
21036;SDS011;10677;50.942;4.028;2022-08-19T09:15:47;13.40;;;6.40;;
21036;SDS011;10677;50.942;4.028;2022-08-19T09:18:17;11.88;;;5.80;;
21036;SDS011;10677;50.942;4.028;2022-08-19T09:20:43;9.60;;;5.55;;
21036;SDS011;10677;50.942;4.028;2022-08-19T09:23:11;9.60;;;5.95;;
21036;SDS011;10677;50.942;4.028;2022-08-19T09:25:37;10.73;;;5.45;;
21036;SDS011;10677;50.942;4.028;2022-08-19T09:28:05;10.85;;;5.75;;
21036;SDS011;10677;50.942;4.028;2022-08-19T09:30:33;8.35;;;5.43;;
21036;SDS011;10677;50.942;4.028;2022-08-19T09:33:04;10.48;;;5.20;;
21036;SDS011;10677;50.942;4.028;2022-08-19T09:35:31;10.00;;;5.32;;
21036;SDS011;10677;50.942;4.028;2022-08-19T09:37:57;8.38;;;5.45;;
21036;SDS011;10677;50.942;4.028;2022-08-19T09:40:24;10.38;;;5.00;;
21036;SDS011;10677;50.942;4.028;2022-08-19T09:42:50;8.80;;;5.63;;
21036;SDS011;10677;50.942;4.028;2022-08-19T09:45:17;10.40;;;6.25;;
21036;SDS011;10677;50.942;4.028;2022-08-19T09:47:46;10.35;;;5.70;;
21036;SDS011;10677;50.942;4.028;2022-08-19T09:50:14;9.07;;;5.25;;
21036;SDS011;10677;50.942;4.028;2022-08-19T09:52:39;10.15;;;5.88;;
21036;SDS011;10677;50.942;4.028;2022-08-19T09:55:07;9.68;;;6.50;;
21036;SDS011;10677;50.942;4.028;2022-08-19T09:57:34;11.52;;;6.10;;
21036;SDS011;10677;50.942;4.028;2022-08-19T10:00:00;8.20;;;5.43;;
21036;SDS011;10677;50.942;4.028;2022-08-19T10:02:26;8.20;;;5.32;;
21036;SDS011;10677;50.942;4.028;2022-08-19T10:04:52;7.95;;;5.28;;
21036;SDS011;10677;50.942;4.028;2022-08-19T10:07:36;9.60;;;4.97;;
21036;SDS011;10677;50.942;4.028;2022-08-19T10:10:06;7.45;;;4.72;;
21036;SDS011;10677;50.942;4.028;2022-08-19T10:12:32;8.18;;;5.20;;
21036;SDS011;10677;50.942;4.028;2022-08-19T10:14:59;10.88;;;4.63;;
21036;SDS011;10677;50.942;4.028;2022-08-19T10:17:25;9.70;;;5.47;;
21036;SDS011;10677;50.942;4.028;2022-08-19T10:19:52;9.70;;;5.03;;
21036;SDS011;10677;50.942;4.028;2022-08-19T10:22:18;9.27;;;5.13;;
21036;SDS011;10677;50.942;4.028;2022-08-19T10:24:45;8.15;;;5.15;;
21036;SDS011;10677;50.942;4.028;2022-08-19T10:27:11;9.85;;;5.35;;
21036;SDS011;10677;50.942;4.028;2022-08-19T10:29:38;8.05;;;4.93;;
21036;SDS011;10677;50.942;4.028;2022-08-19T10:32:05;8.88;;;5.47;;
21036;SDS011;10677;50.942;4.028;2022-08-19T10:34:33;9.60;;;4.95;;
21036;SDS011;10677;50.942;4.028;2022-08-19T10:37:00;10.70;;;5.65;;
21036;SDS011;10677;50.942;4.028;2022-08-19T10:39:28;11.02;;;5.25;;
21036;SDS011;10677;50.942;4.028;2022-08-19T10:41:55;7.57;;;4.85;;
21036;SDS011;10677;50.942;4.028;2022-08-19T10:44:21;8.48;;;4.88;;
21036;SDS011;10677;50.942;4.028;2022-08-19T10:46:48;8.40;;;5.22;;
21036;SDS011;10677;50.942;4.028;2022-08-19T10:49:15;7.97;;;5.15;;
21036;SDS011;10677;50.942;4.028;2022-08-19T10:51:41;9.50;;;4.90;;
21036;SDS011;10677;50.942;4.028;2022-08-19T10:54:26;7.78;;;4.47;;
21036;SDS011;10677;50.942;4.028;2022-08-19T10:57:12;8.13;;;4.55;;
21036;SDS011;10677;50.942;4.028;2022-08-19T10:59:39;9.15;;;4.63;;
21036;SDS011;10677;50.942;4.028;2022-08-19T11:02:05;7.63;;;4.70;;
21036;SDS011;10677;50.942;4.028;2022-08-19T11:04:38;7.82;;;4.53;;
21036;SDS011;10677;50.942;4.028;2022-08-19T11:07:05;7.68;;;4.72;;
21036;SDS011;10677;50.942;4.028;2022-08-19T11:09:31;10.63;;;4.55;;
21036;SDS011;10677;50.942;4.028;2022-08-19T11:12:03;8.55;;;4.05;;
21036;SDS011;10677;50.942;4.028;2022-08-19T11:14:29;8.57;;;4.30;;
21036;SDS011;10677;50.942;4.028;2022-08-19T11:16:58;6.57;;;4.50;;
21036;SDS011;10677;50.942;4.028;2022-08-19T11:19:24;6.93;;;4.15;;
21036;SDS011;10677;50.942;4.028;2022-08-19T11:21:50;5.93;;;3.75;;
21036;SDS011;10677;50.942;4.028;2022-08-19T11:24:18;6.75;;;3.72;;
21036;SDS011;10677;50.942;4.028;2022-08-19T11:26:45;6.68;;;3.47;;
21036;SDS011;10677;50.942;4.028;2022-08-19T11:29:14;4.90;;;3.28;;
21036;SDS011;10677;50.942;4.028;2022-08-19T11:31:41;11.00;;;4.78;;
21036;SDS011;10677;50.942;4.028;2022-08-19T11:34:10;6.97;;;4.45;;
21036;SDS011;10677;50.942;4.028;2022-08-19T11:36:38;8.68;;;5.88;;
21036;SDS011;10677;50.942;4.028;2022-08-19T11:39:06;9.52;;;6.25;;
21036;SDS011;10677;50.942;4.028;2022-08-19T11:41:32;11.40;;;7.22;;
21036;SDS011;10677;50.942;4.028;2022-08-19T11:43:59;11.48;;;7.38;;
21036;SDS011;10677;50.942;4.028;2022-08-19T11:46:25;9.73;;;6.72;;
21036;SDS011;10677;50.942;4.028;2022-08-19T11:48:55;9.00;;;6.75;;
21036;SDS011;10677;50.942;4.028;2022-08-19T11:51:22;11.55;;;6.90;;
21036;SDS011;10677;50.942;4.028;2022-08-19T11:53:53;7.82;;;6.95;;
21036;SDS011;10677;50.942;4.028;2022-08-19T11:56:20;9.68;;;6.75;;
21036;SDS011;10677;50.942;4.028;2022-08-19T11:58:46;9.32;;;6.95;;
21036;SDS011;10677;50.942;4.028;2022-08-19T12:01:14;11.05;;;7.10;;
21036;SDS011;10677;50.942;4.028;2022-08-19T12:03:42;8.35;;;6.03;;
21036;SDS011;10677;50.942;4.028;2022-08-19T12:06:11;7.22;;;5.40;;
21036;SDS011;10677;50.942;4.028;2022-08-19T12:08:39;9.68;;;6.20;;
21036;SDS011;10677;50.942;4.028;2022-08-19T12:11:06;9.85;;;5.30;;
21036;SDS011;10677;50.942;4.028;2022-08-19T12:13:35;7.80;;;5.03;;
21036;SDS011;10677;50.942;4.028;2022-08-19T12:16:08;8.70;;;5.03;;
21036;SDS011;10677;50.942;4.028;2022-08-19T12:18:37;7.40;;;4.22;;
21036;SDS011;10677;50.942;4.028;2022-08-19T12:21:08;7.32;;;4.80;;
21036;SDS011;10677;50.942;4.028;2022-08-19T12:23:36;7.40;;;4.75;;
21036;SDS011;10677;50.942;4.028;2022-08-19T12:26:02;6.93;;;4.22;;
21036;SDS011;10677;50.942;4.028;2022-08-19T12:28:28;7.65;;;4.25;;
21036;SDS011;10677;50.942;4.028;2022-08-19T12:30:55;5.43;;;3.90;;
21036;SDS011;10677;50.942;4.028;2022-08-19T12:33:22;6.18;;;4.15;;
21036;SDS011;10677;50.942;4.028;2022-08-19T12:35:50;6.15;;;3.88;;
21036;SDS011;10677;50.942;4.028;2022-08-19T12:38:16;5.72;;;4.18;;
21036;SDS011;10677;50.942;4.028;2022-08-19T12:40:46;7.57;;;3.75;;
21036;SDS011;10677;50.942;4.028;2022-08-19T12:43:12;5.78;;;4.25;;
21036;SDS011;10677;50.942;4.028;2022-08-19T12:45:40;5.50;;;3.88;;
21036;SDS011;10677;50.942;4.028;2022-08-19T12:48:07;6.25;;;4.15;;
21036;SDS011;10677;50.942;4.028;2022-08-19T12:50:33;4.90;;;3.05;;
21036;SDS011;10677;50.942;4.028;2022-08-19T12:52:59;5.85;;;3.63;;
21036;SDS011;10677;50.942;4.028;2022-08-19T12:55:24;3.58;;;2.78;;
21036;SDS011;10677;50.942;4.028;2022-08-19T12:57:50;4.70;;;3.22;;
21036;SDS011;10677;50.942;4.028;2022-08-19T13:00:17;7.55;;;3.47;;
21036;SDS011;10677;50.942;4.028;2022-08-19T13:02:46;6.00;;;3.45;;
21036;SDS011;10677;50.942;4.028;2022-08-19T13:05:15;5.25;;;3.70;;
21036;SDS011;10677;50.942;4.028;2022-08-19T13:07:45;4.80;;;2.90;;
21036;SDS011;10677;50.942;4.028;2022-08-19T13:10:12;4.97;;;2.85;;
21036;SDS011;10677;50.942;4.028;2022-08-19T13:12:40;6.03;;;3.38;;
21036;SDS011;10677;50.942;4.028;2022-08-19T13:15:07;3.85;;;3.00;;
21036;SDS011;10677;50.942;4.028;2022-08-19T13:17:33;4.30;;;2.47;;
21036;SDS011;10677;50.942;4.028;2022-08-19T13:19:59;2.65;;;1.80;;
21036;SDS011;10677;50.942;4.028;2022-08-19T13:22:25;4.47;;;1.60;;
21036;SDS011;10677;50.942;4.028;2022-08-19T13:24:52;3.20;;;2.25;;
21036;SDS011;10677;50.942;4.028;2022-08-19T13:27:18;2.97;;;1.65;;
21036;SDS011;10677;50.942;4.028;2022-08-19T13:29:43;4.82;;;1.80;;
21036;SDS011;10677;50.942;4.028;2022-08-19T13:32:30;5.45;;;1.80;;
21036;SDS011;10677;50.942;4.028;2022-08-19T13:35:15;4.05;;;1.45;;
21036;SDS011;10677;50.942;4.028;2022-08-19T13:37:41;4.40;;;1.45;;
21036;SDS011;10677;50.942;4.028;2022-08-19T13:40:08;4.30;;;1.83;;
21036;SDS011;10677;50.942;4.028;2022-08-19T13:42:42;2.85;;;1.30;;
21036;SDS011;10677;50.942;4.028;2022-08-19T13:45:13;6.57;;;2.35;;
21036;SDS011;10677;50.942;4.028;2022-08-19T13:47:40;9.57;;;2.53;;
21036;SDS011;10677;50.942;4.028;2022-08-19T13:50:10;4.85;;;3.15;;
21036;SDS011;10677;50.942;4.028;2022-08-19T13:52:41;4.25;;;2.85;;
21036;SDS011;10677;50.942;4.028;2022-08-19T13:55:08;6.07;;;2.75;;
21036;SDS011;10677;50.942;4.028;2022-08-19T13:57:35;3.80;;;2.85;;
21036;SDS011;10677;50.942;4.028;2022-08-19T14:00:04;6.45;;;2.80;;
21036;SDS011;10677;50.942;4.028;2022-08-19T14:02:33;4.72;;;3.40;;
21036;SDS011;10677;50.942;4.028;2022-08-19T14:04:59;6.30;;;3.35;;
21036;SDS011;10677;50.942;4.028;2022-08-19T14:07:24;4.65;;;3.40;;
21036;SDS011;10677;50.942;4.028;2022-08-19T14:09:50;5.55;;;2.90;;
21036;SDS011;10677;50.942;4.028;2022-08-19T14:12:19;4.63;;;2.72;;
21036;SDS011;10677;50.942;4.028;2022-08-19T14:14:45;5.03;;;2.40;;
21036;SDS011;10677;50.942;4.028;2022-08-19T14:17:12;3.97;;;2.15;;
21036;SDS011;10677;50.942;4.028;2022-08-19T14:19:38;4.40;;;1.83;;
21036;SDS011;10677;50.942;4.028;2022-08-19T14:22:03;4.38;;;1.52;;
21036;SDS011;10677;50.942;4.028;2022-08-19T14:24:30;2.78;;;1.60;;
21036;SDS011;10677;50.942;4.028;2022-08-19T14:26:57;4.15;;;1.73;;
21036;SDS011;10677;50.942;4.028;2022-08-19T14:29:23;5.35;;;1.42;;
21036;SDS011;10677;50.942;4.028;2022-08-19T14:31:49;1.83;;;0.95;;
21036;SDS011;10677;50.942;4.028;2022-08-19T14:34:15;2.13;;;1.20;;
21036;SDS011;10677;50.942;4.028;2022-08-19T14:36:40;2.53;;;1.10;;
21036;SDS011;10677;50.942;4.028;2022-08-19T14:39:07;3.80;;;1.08;;
21036;SDS011;10677;50.942;4.028;2022-08-19T14:41:33;3.63;;;1.30;;
21036;SDS011;10677;50.942;4.028;2022-08-19T14:43:59;2.08;;;1.02;;
21036;SDS011;10677;50.942;4.028;2022-08-19T14:46:26;4.72;;;1.23;;
21036;SDS011;10677;50.942;4.028;2022-08-19T14:48:53;2.22;;;1.35;;